Urom, Hungary

2:02 PM CEST on August 26, 2016 (GMT +0200)
| | Change Station

Elev -9999 ft 0.00 °N, 0.00 °E | Updated

Clear
Clear
80 °F
Feels Like 81 °F
N
7
Wind Variable Wind from ESE
Gusts mph

Today
High -- | Low -- °F
--% Chance of Precip.
Yesterday
High -- | Low -- °F
Precip. -- in
Pressure 30.18 in
Visibility -9999.0 miles
Clouds
Heat Index 81 °F
Dew Point 57 °F
Humidity 45%
Rainfall --
Snow Depth Not available.
5:54 AM 7:35 PM
Waning Crescent, 35% visible
METAR LHBP 261200Z 11009KT 080V150 CAVOK 27/12 Q1022 NOSIG
Pressure 30.18 in
Visibility -9999.0 miles
Clouds
Heat Index 81 °F
Dew Point 57 °F
Humidity 45%
Rainfall --
Snow Depth Not available.
5:54 AM 7:35 PM
Waning Crescent, 35% visible
METAR LHBP 261200Z 11009KT 080V150 CAVOK 27/12 Q1022 NOSIG

10-Day Weather Forecast

×

Almanac

Astronomy

Aug. 26, 2016 Rise Set
Actual Time
Civil Twilight
Nautical Twilight
Astronomical Twilight
Moon
Length of Visible Light
Length of Day
Tomorrow will be .
, % of the Moon is Illuminated

Today's Extremes

Country Highs Country Lows

Community

WunderPhotos

Upload Photos

1,935,077 photos uploaded!

WunderBlog® & News

Nearby

Air Quality

  Air Quality AQ Index Pollutant
Not available.

Snow Depth

Station Depth Elevation

Earthquake Activity

City Distance Mag. Time & Date
Minimum magnitude displayed is 2.5.

Coastal Water Temperatures

Place Temperature

Stations

Nearby Weather Stations

Station Location Temp. Windchill Dew Point Humidity Wind Precip. Elev Updated Type